Bville, New York
Current Conditions -  °F | °C
As of 12:54 AM on Sunday 23 Nov 2014 (Local Time) from KFZY Reporting Station
Light Rain Light Rain  
Wind Chill: 37°   Ceiling: 2300
Heat Index: 42°   Visibility: 6mi
Dew Point: 39°   Wind: 8mph
Humidity: 89%   Direction: 210°SSW
Pressure: 30"   Gusts: NA
Location:  43.1825°N, 76.3664°W
Report Text: KFZY 230554Z AUTO 21007KT 6SM -RA BR OVC023 06/04 A3000 RMK AO2 SLP161 P0001 60009 T00560039 10061 20039 56000
Loading
Personal Weather Stations






























Interactive Weather Map New forecast layout! Learn more

10-Day Weather Forecast

Advertisements
Track Severe Weather on mobile